Time;durP1;ratioP1;P1;durP2;ratioP2;P2;SDS_P1;SDS_P2;PMS_P1;PMS_P2;Temp;Humidity;BMP_temperature;BMP_pressure;BME280_temperature;BME280_humidity;BME280_pressure;Samples;Min_cycle;Max_cycle;Signal;HPM_P1;HPM_P2
2021/05/09 00:01:20;;;;;;;23.90;14.55;;;;;;;5.07;70.99;99956.09;5096819;28;20074;-51
2021/05/09 00:03:46;;;;;;;22.73;13.73;;;;;;;5.14;71.36;99948.31;5096545;28;20069;-51
2021/05/09 00:06:12;;;;;;;27.10;14.32;;;;;;;5.19;70.94;99937.91;5097889;28;20031;-51
2021/05/09 00:08:38;;;;;;;23.92;13.75;;;;;;;5.33;71.03;99949.16;5096359;28;20048;-51
2021/05/09 00:11:03;;;;;;;24.33;14.35;;;;;;;5.42;70.51;99945.66;5097155;28;20044;-51
2021/05/09 00:13:29;;;;;;;23.25;12.43;;;;;;;5.48;70.62;99942.19;5097414;28;20048;-51
2021/05/09 00:15:56;;;;;;;20.27;11.65;;;;;;;5.58;70.02;99946.50;5097226;28;20040;-51
2021/05/09 00:18:22;;;;;;;25.75;14.57;;;;;;;5.66;69.53;99941.28;5096881;28;20055;-52
2021/05/09 00:20:47;;;;;;;25.27;14.20;;;;;;;5.72;69.20;99941.25;5097160;28;20047;-51
2021/05/09 00:23:13;;;;;;;19.65;12.02;;;;;;;5.80;68.66;99936.91;5096427;28;20098;-51
2021/05/09 00:25:39;;;;;;;20.70;11.57;;;;;;;5.87;68.38;99936.00;5096398;28;20047;-52
2021/05/09 00:28:05;;;;;;;19.05;12.23;;;;;;;5.95;67.91;99938.63;5097549;28;20039;-52
2021/05/09 00:30:31;;;;;;;18.27;11.98;;;;;;;6.03;67.66;99936.84;5095942;28;20442;-52
2021/05/09 00:32:57;;;;;;;16.90;10.77;;;;;;;6.09;67.23;99935.06;5096834;28;20036;-51
2021/05/09 00:35:22;;;;;;;17.65;10.35;;;;;;;6.16;66.99;99928.09;5097342;28;20077;-51
2021/05/09 00:37:48;;;;;;;20.25;11.38;;;;;;;6.24;66.61;99925.44;5096144;28;20126;-52
2021/05/09 00:40:14;;;;;;;21.88;12.07;;;;;;;6.25;66.65;99930.66;5096642;28;20450;-52
2021/05/09 00:42:40;;;;;;;14.48;9.77;;;;;;;6.33;66.43;99928.88;5095804;28;20042;-52
2021/05/09 00:45:06;;;;;;;17.85;9.95;;;;;;;6.39;66.20;99927.97;5096947;28;20070;-52
2021/05/09 00:47:32;;;;;;;13.55;8.70;;;;;;;6.45;66.00;99927.06;5096624;28;20052;-52
2021/05/09 00:49:58;;;;;;;13.80;8.43;;;;;;;6.50;65.99;99934.00;5095857;28;20070;-52
2021/05/09 00:52:25;;;;;;;14.85;9.73;;;;;;;6.57;65.66;99927.00;5112824;28;20461;-52
2021/05/09 00:54:51;;;;;;;15.27;9.65;;;;;;;6.66;65.09;99928.66;5095969;28;20060;-52
2021/05/09 00:57:18;;;;;;;21.58;13.68;;;;;;;6.69;64.58;99926.03;5096439;28;20062;-52
2021/05/09 00:59:44;;;;;;;24.10;14.75;;;;;;;6.76;64.49;99932.94;5097241;28;20043;-52
2021/05/09 01:02:10;;;;;;;20.48;13.55;;;;;;;6.81;64.46;99922.47;5095436;28;20044;-52
2021/05/09 01:04:36;;;;;;;16.55;10.60;;;;;;;6.85;64.09;99917.22;5078882;28;20051;-52
2021/05/09 01:07:02;;;;;;;14.88;9.45;;;;;;;6.91;63.68;99917.19;5095382;28;20051;-52
2021/05/09 01:09:28;;;;;;;17.77;9.82;;;;;;;6.94;63.33;99917.16;5096458;28;20350;-52
2021/05/09 01:11:54;;;;;;;16.40;8.95;;;;;;;6.89;62.87;99905.03;5096491;28;20048;-52
2021/05/09 01:14:20;;;;;;;16.92;9.88;;;;;;;7.01;62.78;99913.63;5078960;28;20052;-52
2021/05/09 01:16:45;;;;;;;18.67;8.82;;;;;;;7.06;62.83;99900.56;5096209;28;20349;-52
2021/05/09 01:19:11;;;;;;;13.63;8.27;;;;;;;7.05;62.57;99892.75;5096055;28;20052;-52
2021/05/09 01:21:38;;;;;;;12.43;7.90;;;;;;;7.11;62.59;99900.50;5078599;28;20056;-52
2021/05/09 01:24:04;;;;;;;13.95;7.95;;;;;;;7.12;62.25;99905.72;5096364;28;20052;-52
2021/05/09 01:26:30;;;;;;;12.80;8.10;;;;;;;7.13;61.88;99912.66;5096115;28;20062;-52
2021/05/09 01:28:56;;;;;;;15.27;7.72;;;;;;;7.14;61.87;99901.34;5078581;28;20040;-52
2021/05/09 01:31:21;;;;;;;14.43;8.45;;;;;;;7.16;61.60;99893.53;5095203;28;20327;-52
2021/05/09 01:33:47;;;;;;;13.80;7.78;;;;;;;7.18;61.62;99892.66;5095438;28;20475;-52
2021/05/09 01:36:13;;;;;;;13.82;8.15;;;;;;;7.17;61.65;99890.91;5095957;28;20147;-52
2021/05/09 01:38:39;;;;;;;14.25;9.23;;;;;;;7.14;60.97;99884.84;5096042;28;20040;-52
2021/05/09 01:41:05;;;;;;;20.08;9.57;;;;;;;7.18;61.15;99882.22;5095671;28;20360;-52
2021/05/09 01:43:34;;;;;;;14.93;9.05;;;;;;;7.21;60.56;99892.63;5100327;28;20078;-52
2021/05/09 01:46:00;;;;;;;14.50;8.30;;;;;;;7.23;60.68;99892.59;5099538;28;20063;-52
2021/05/09 01:48:26;;;;;;;17.83;9.48;;;;;;;7.27;60.36;99894.28;5099937;28;20036;-52
2021/05/09 01:50:52;;;;;;;17.25;9.45;;;;;;;7.28;60.59;99898.63;5082857;28;20376;-52
2021/05/09 01:53:18;;;;;;;14.90;8.85;;;;;;;7.31;60.46;99897.72;5099281;28;20071;-52
2021/05/09 01:55:44;;;;;;;17.10;9.95;;;;;;;7.32;60.59;99899.47;5099229;28;20059;-52
2021/05/09 01:58:26;;;;;;;15.63;9.13;;;;;;;7.31;60.48;99889.88;5099206;28;20071;-52
2021/05/09 02:01:03;;;;;;;22.35;10.70;;;;;;;7.34;60.33;99887.25;5099339;28;20067;-52
2021/05/09 02:03:39;;;;;;;15.82;10.10;;;;;;;7.36;60.32;99888.13;5098930;28;20074;-52
2021/05/09 02:06:06;;;;;;;16.95;9.73;;;;;;;7.39;60.26;99885.47;5099987;28;20051;-52
2021/05/09 02:08:32;;;;;;;18.98;10.65;;;;;;;7.40;60.35;99884.59;5099821;28;20103;-52
2021/05/09 02:11:04;;;;;;;26.67;13.93;;;;;;;7.37;60.54;99882.88;5083599;28;20044;-52
2021/05/09 02:13:31;;;;;;;24.23;13.82;;;;;;;7.38;60.51;99888.97;5098826;28;20353;-52
2021/05/09 02:16:08;;;;;;;27.20;13.93;;;;;;;7.39;60.28;99880.25;5098680;28;20326;-52
2021/05/09 02:18:33;;;;;;;26.55;14.30;;;;;;;7.38;60.43;99871.59;5098600;28;20081;-52
2021/05/09 02:21:00;;;;;;;28.33;14.77;;;;;;;7.37;60.60;99869.84;5098795;28;20055;-52
2021/05/09 02:23:26;;;;;;;24.80;12.30;;;;;;;7.36;60.53;99880.28;5098471;28;20062;-52
2021/05/09 02:25:52;;;;;;;19.70;11.30;;;;;;;7.32;60.72;99873.41;5098458;28;20131;-52
2021/05/09 02:28:17;;;;;;;27.10;14.55;;;;;;;7.29;60.86;99871.69;5099471;28;20059;-52
2021/05/09 02:30:45;;;;;;;30.75;17.30;;;;;;;7.19;61.12;99864.84;5098914;28;20044;-52
2021/05/09 02:33:12;;;;;;;31.45;16.55;;;;;;;7.17;61.29;99864.84;5081436;28;20047;-52
2021/05/09 02:35:41;;;;;;;21.77;13.38;;;;;;;7.16;61.22;99868.34;5098399;28;20072;-52
2021/05/09 02:38:08;;;;;;;23.40;13.38;;;;;;;7.15;61.46;99868.34;5099333;28;20044;-52
2021/05/09 02:40:34;;;;;;;24.70;13.32;;;;;;;7.15;61.24;99866.63;5099082;28;20094;-52
2021/05/09 02:43:00;;;;;;;24.48;14.35;;;;;;;7.14;61.19;99864.03;5098751;28;20072;-52
2021/05/09 02:45:26;;;;;;;25.23;13.88;;;;;;;7.15;61.25;99870.94;5098933;28;20124;-52
2021/05/09 02:47:52;;;;;;;22.90;13.32;;;;;;;7.17;61.21;99869.19;5098241;28;20071;-52
2021/05/09 02:50:20;;;;;;;24.77;13.05;;;;;;;7.16;61.45;99863.13;5097882;28;20353;-52
2021/05/09 02:52:46;;;;;;;18.38;11.55;;;;;;;7.18;61.21;99863.09;5098263;28;20059;-52
2021/05/09 02:55:13;;;;;;;22.70;11.45;;;;;;;7.20;61.33;99863.97;5097864;28;20055;-52
2021/05/09 02:57:41;;;;;;;20.98;11.93;;;;;;;7.21;61.39;99871.78;5098765;28;20066;-52
2021/05/09 03:00:08;;;;;;;21.08;12.02;;;;;;;7.21;61.47;99876.09;5098162;28;20323;-52
2021/05/09 03:02:36;;;;;;;19.20;10.85;;;;;;;7.23;61.28;99864.78;5097782;28;20036;-52
2021/05/09 03:05:04;;;;;;;23.63;12.57;;;;;;;7.17;61.68;99857.03;5098809;28;20078;-52
2021/05/09 03:07:30;;;;;;;20.40;12.10;;;;;;;7.25;61.59;99870.84;5081123;28;20058;-52
2021/05/09 03:09:56;;;;;;;20.33;12.13;;;;;;;7.28;61.46;99862.16;5097946;28;20040;-52
2021/05/09 03:12:22;;;;;;;20.70;12.43;;;;;;;7.30;61.56;99857.75;5098685;28;20044;-52
2021/05/09 03:14:48;;;;;;;24.38;13.05;;;;;;;7.34;61.58;99863.81;5097445;28;20486;-52
2021/05/09 03:17:14;;;;;;;22.15;13.30;;;;;;;7.32;61.84;99869.03;5098582;28;20060;-52
2021/05/09 03:19:40;;;;;;;23.33;11.65;;;;;;;7.36;61.89;99869.88;5098141;28;20385;-52
2021/05/09 03:22:06;;;;;;;21.17;11.45;;;;;;;7.41;61.31;99868.06;5097669;28;20055;-52
2021/05/09 03:24:33;;;;;;;21.55;12.13;;;;;;;7.45;61.54;99867.16;5098497;28;20043;-52
2021/05/09 03:26:59;;;;;;;22.15;12.65;;;;;;;7.46;61.43;99874.09;5098680;28;20051;-52
2021/05/09 03:29:25;;;;;;;23.13;12.75;;;;;;;7.53;61.56;99877.50;5098210;28;20197;-52
2021/05/09 03:31:50;;;;;;;24.83;12.90;;;;;;;7.57;61.25;99869.63;5098276;28;20074;-52
2021/05/09 03:34:16;;;;;;;22.65;12.18;;;;;;;7.62;61.11;99874.78;5098236;28;20487;-52
2021/05/09 03:36:42;;;;;;;20.15;11.75;;;;;;;7.68;61.09;99874.72;5098150;28;20047;-52
2021/05/09 03:39:08;;;;;;;19.95;11.30;;;;;;;7.71;61.20;99869.47;5096933;28;20339;-52
2021/05/09 03:41:33;;;;;;;22.77;12.00;;;;;;;7.76;61.16;99874.59;5098077;28;20078;-52
2021/05/09 03:43:59;;;;;;;21.95;12.48;;;;;;;7.80;61.31;99868.47;5080430;28;20070;-52
2021/05/09 03:46:25;;;;;;;17.52;11.38;;;;;;;7.83;61.13;99860.59;5097751;28;20426;-52
2021/05/09 03:48:50;;;;;;;18.55;10.73;;;;;;;7.91;60.84;99864.00;5097067;28;20036;-52
2021/05/09 03:51:17;;;;;;;18.40;10.27;;;;;;;8.00;60.59;99861.25;5097916;28;20056;-52
2021/05/09 03:53:42;;;;;;;17.65;10.32;;;;;;;8.09;60.73;99860.25;5096748;28;20077;-52
2021/05/09 03:56:08;;;;;;;19.45;10.90;;;;;;;8.14;60.15;99853.22;5096926;28;20051;-52
2021/05/09 03:58:34;;;;;;;16.30;9.85;;;;;;;8.22;60.71;99859.19;5097524;28;20338;-52
2021/05/09 04:00:59;;;;;;;18.30;9.15;;;;;;;8.33;59.96;99851.22;5097807;28;20040;-52
2021/05/09 04:03:26;;;;;;;17.63;10.50;;;;;;;8.42;60.39;99859.81;5097794;28;20052;-52
2021/05/09 04:05:53;;;;;;;14.38;8.80;;;;;;;8.56;60.30;99856.13;5097539;28;20051;-52
2021/05/09 04:08:22;;;;;;;14.90;8.73;;;;;;;8.81;60.37;99844.38;5097392;28;20085;-52
2021/05/09 04:10:49;;;;;;;19.88;9.70;;;;;;;9.01;59.89;99845.78;5097268;28;20044;-52
2021/05/09 04:13:15;;;;;;;18.45;9.38;;;;;;;9.50;58.72;99837.84;5096392;28;20051;-52
2021/05/09 04:15:41;;;;;;;18.77;9.20;;;;;;;10.08;58.01;99838.38;5097128;28;20170;-52
2021/05/09 04:18:06;;;;;;;14.98;8.75;;;;;;;10.56;57.12;99832.88;5096197;28;20052;-52
2021/05/09 04:20:33;;;;;;;15.80;8.88;;;;;;;10.76;55.31;99801.84;5097751;28;20047;-52
2021/05/09 04:23:15;;;;;;;19.02;9.98;;;;;;;11.12;53.77;99819.25;5079572;28;20130;-52
2021/05/09 04:25:45;;;;;;;15.95;9.80;;;;;;;11.15;53.95;99827.03;5096399;28;20048;-52
2021/05/09 04:28:11;;;;;;;17.15;9.20;;;;;;;11.08;53.49;99830.69;5097267;28;20378;-52
2021/05/09 04:30:37;;;;;;;19.38;9.85;;;;;;;11.05;53.03;99825.53;5096771;28;20043;-52
2021/05/09 04:33:04;;;;;;;17.98;9.13;;;;;;;11.03;52.90;99833.44;5096245;28;20151;-52
2021/05/09 04:35:30;;;;;;;14.45;8.43;;;;;;;11.16;52.82;99826.13;5096814;28;20048;-52
2021/05/09 04:37:55;;;;;;;17.35;8.77;;;;;;;11.20;52.81;99831.22;5096983;28;20331;-52
2021/05/09 04:40:21;;;;;;;14.80;8.13;;;;;;;11.13;52.30;99827.06;5096754;28;20429;-52
2021/05/09 04:42:47;;;;;;;15.40;9.15;;;;;;;11.09;52.58;99827.19;5096037;28;20047;-52
2021/05/09 04:45:13;;;;;;;15.48;9.15;;;;;;;11.09;52.46;99835.06;5096914;28;20058;-52
2021/05/09 04:47:39;;;;;;;15.02;8.15;;;;;;;10.97;52.47;99836.22;5096909;28;20059;-52
2021/05/09 04:50:06;;;;;;;14.70;7.80;;;;;;;10.97;52.34;99834.47;5096537;28;20044;-52
2021/05/09 04:52:31;;;;;;;15.32;8.32;;;;;;;11.16;52.51;99834.84;5079717;28;20078;-52
2021/05/09 04:54:57;;;;;;;16.48;8.27;;;;;;;11.79;51.98;99838.31;5096747;28;20047;-53
2021/05/09 04:57:23;;;;;;;22.90;11.27;;;;;;;12.50;50.46;99839.66;5096229;28;20117;-52
2021/05/09 04:59:48;;;;;;;19.73;10.27;;;;;;;13.21;48.01;99835.50;5095890;28;20482;-53
2021/05/09 05:02:14;;;;;;;14.00;8.60;;;;;;;13.81;47.65;99841.22;5096369;28;20056;-53
2021/05/09 05:04:40;;;;;;;17.23;9.48;;;;;;;14.45;46.46;99837.84;5096903;28;20040;-52
2021/05/09 05:07:06;;;;;;;23.63;10.25;;;;;;;14.93;45.54;99842.91;5096395;28;20117;-53
2021/05/09 05:09:32;;;;;;;24.33;10.23;;;;;;;15.40;43.91;99836.47;5096487;28;20048;-53
2021/05/09 05:11:57;;;;;;;15.90;8.90;;;;;;;15.83;42.23;99821.41;5096304;28;20368;-53
2021/05/09 05:14:23;;;;;;;18.80;9.40;;;;;;;16.04;41.69;99836.22;5095758;28;20126;-53
2021/05/09 05:16:49;;;;;;;15.20;8.82;;;;;;;16.25;40.54;99829.06;5096083;28;20047;-53
2021/05/09 05:19:15;;;;;;;13.70;8.05;;;;;;;16.80;40.67;99826.41;5078396;28;20365;-53
2021/05/09 05:21:40;;;;;;;12.43;8.35;;;;;;;17.09;39.29;99823.19;5096403;28;20070;-52
2021/05/09 05:24:08;;;;;;;14.43;8.43;;;;;;;17.35;39.04;99832.41;5095517;28;20367;-52
2021/05/09 05:26:34;;;;;;;15.90;9.00;;;;;;;17.65;38.40;99824.66;5112728;28;20073;-53
2021/05/09 05:29:00;;;;;;;17.48;9.13;;;;;;;17.77;38.75;99824.00;5096011;28;20449;-53
2021/05/09 05:31:26;;;;;;;14.13;8.13;;;;;;;18.03;37.19;99824.34;5095223;28;20036;-53
2021/05/09 05:33:51;;;;;;;16.48;9.18;;;;;;;18.06;36.53;99825.03;5095464;28;20056;-52
2021/05/09 05:36:17;;;;;;;12.57;8.43;;;;;;;18.04;36.55;99818.13;5096213;28;20040;-53
2021/05/09 05:38:43;;;;;;;11.88;7.90;;;;;;;18.14;36.54;99822.84;5096650;28;20036;-52
2021/05/09 05:41:09;;;;;;;13.63;7.70;;;;;;;18.17;36.34;99809.41;5095236;28;20135;-52
2021/05/09 05:43:34;;;;;;;10.45;7.47;;;;;;;18.40;36.43;99817.84;5096189;28;20055;-53
2021/05/09 05:46:00;;;;;;;11.98;7.80;;;;;;;18.38;36.20;99815.28;5095143;28;20460;-53
2021/05/09 05:48:26;;;;;;;13.23;7.45;;;;;;;18.61;36.04;99827.22;5096142;28;20052;-52
2021/05/09 05:50:53;;;;;;;13.10;8.35;;;;;;;18.75;35.95;99823.81;5096071;28;20055;-52
2021/05/09 05:53:20;;;;;;;14.57;8.45;;;;;;;19.00;36.25;99825.00;5096122;28;20066;-52
2021/05/09 05:55:46;;;;;;;14.07;8.48;;;;;;;19.27;36.20;99822.47;5095892;28;20043;-53
2021/05/09 05:58:13;;;;;;;14.60;9.25;;;;;;;19.45;34.78;99821.34;5096168;28;20052;-53
2021/05/09 06:00:39;;;;;;;14.70;9.27;;;;;;;19.72;35.26;99817.97;5095793;28;20090;-53
2021/05/09 06:03:05;;;;;;;20.88;13.68;;;;;;;19.99;35.19;99818.91;5096011;28;20060;-54
2021/05/09 06:05:30;;;;;;;19.58;12.05;;;;;;;20.15;34.20;99833.84;5095812;28;20442;-53
2021/05/09 06:07:57;;;;;;;12.23;8.55;;;;;;;20.37;34.12;99823.53;5095813;28;20492;-52
2021/05/09 06:10:22;;;;;;;15.18;8.00;;;;;;;20.64;33.79;99807.59;5095835;28;20032;-53
2021/05/09 06:12:48;;;;;;;12.63;7.95;;;;;;;20.97;33.40;99796.47;5094292;28;20357;-53
2021/05/09 06:15:15;;;;;;;9.80;6.93;;;;;;;21.11;31.62;99789.34;5093635;28;20070;-53
2021/05/09 06:17:42;;;;;;;10.63;7.25;;;;;;;21.48;32.62;99800.97;5093611;28;20051;-52
2021/05/09 06:20:08;;;;;;;10.95;7.13;;;;;;;21.75;31.50;99798.19;5093899;28;20048;-53
2021/05/09 06:22:34;;;;;;;11.60;7.93;;;;;;;21.58;30.88;99791.41;5092894;28;20086;-53
2021/05/09 06:24:59;;;;;;;12.90;8.35;;;;;;;21.61;30.88;99793.84;5093661;28;20047;-53
2021/05/09 06:27:25;;;;;;;9.60;7.05;;;;;;;21.85;31.48;99785.91;5094166;28;20056;-52
2021/05/09 06:29:51;;;;;;;12.73;7.72;;;;;;;21.92;30.60;99784.47;5098627;28;20044;-52
2021/05/09 06:32:17;;;;;;;7.57;5.60;;;;;;;21.76;30.66;99780.38;5098520;28;20059;-53
2021/05/09 06:34:43;;;;;;;10.95;6.25;;;;;;;21.69;30.75;99783.47;5099499;28;20100;-53
2021/05/09 06:37:11;;;;;;;7.50;5.30;;;;;;;21.92;31.34;99781.81;5099283;28;20116;-53
2021/05/09 06:39:37;;;;;;;7.00;4.82;;;;;;;22.25;30.85;99784.84;5098405;28;20070;-53
2021/05/09 06:42:04;;;;;;;8.68;5.90;;;;;;;22.44;31.13;99785.16;5099239;28;20044;-53
2021/05/09 06:44:33;;;;;;;8.10;5.57;;;;;;;22.27;30.64;99781.09;5099241;28;20040;-53
2021/05/09 06:47:00;;;;;;;9.27;6.35;;;;;;;22.35;30.43;99781.34;5099179;28;20126;-52
2021/05/09 06:49:26;;;;;;;10.60;5.85;;;;;;;22.30;30.33;99782.69;5099100;28;20058;-53
2021/05/09 06:51:52;;;;;;;9.38;5.95;;;;;;;22.47;30.22;99776.09;5099385;28;20040;-53
2021/05/09 06:54:18;;;;;;;9.48;5.57;;;;;;;22.31;30.77;99779.03;5099296;28;20434;-54
2021/05/09 06:56:43;;;;;;;8.07;5.07;;;;;;;22.27;30.54;99788.25;5097999;28;20039;-52
2021/05/09 06:59:09;;;;;;;9.73;6.28;;;;;;;22.18;30.45;99784.44;5097733;28;20105;-54
2021/05/09 07:01:35;;;;;;;9.43;5.85;;;;;;;22.38;30.16;99778.47;5098670;28;20078;-53
2021/05/09 07:04:00;;;;;;;8.25;6.43;;;;;;;22.45;29.80;99778.00;5098843;28;20438;-53
2021/05/09 07:06:26;;;;;;;9.88;4.90;;;;;;;22.52;30.50;99777.47;5097946;28;20056;-53
2021/05/09 07:08:52;;;;;;;7.07;4.93;;;;;;;22.69;29.75;99773.50;5098587;28;20315;-53
2021/05/09 07:11:18;;;;;;;7.13;4.45;;;;;;;22.84;30.55;99772.31;5098572;28;20044;-54
2021/05/09 07:13:44;;;;;;;9.73;4.90;;;;;;;22.89;29.63;99776.47;5098506;28;20066;-54
2021/05/09 07:16:09;;;;;;;8.40;5.43;;;;;;;22.81;29.96;99790.38;5098440;28;20044;-53
2021/05/09 07:18:37;;;;;;;6.93;3.78;;;;;;;22.72;29.85;99791.13;5098195;28;20048;-53
2021/05/09 07:21:10;;;;;;;7.22;4.40;;;;;;;22.69;29.66;99780.66;5097623;28;20044;-53
2021/05/09 07:23:38;;;;;;;6.43;4.80;;;;;;;22.75;29.41;99781.06;5098611;28;20048;-53
2021/05/09 07:26:04;;;;;;;7.55;5.22;;;;;;;22.82;30.04;99792.13;5098639;28;20052;-53
2021/05/09 07:28:29;;;;;;;13.05;9.48;;;;;;;22.94;29.35;99787.66;5098369;28;20055;-53
2021/05/09 07:30:55;;;;;;;7.22;5.30;;;;;;;22.91;29.64;99780.75;5080637;28;20063;-53
2021/05/09 07:33:21;;;;;;;6.13;4.68;;;;;;;23.05;29.90;99774.34;5097311;28;20051;-54
2021/05/09 07:35:47;;;;;;;5.00;3.67;;;;;;;23.25;29.54;99781.66;5097053;28;20357;-53
2021/05/09 07:38:12;;;;;;;6.05;4.10;;;;;;;23.49;29.69;99770.00;5097064;28;20058;-53
2021/05/09 07:40:38;;;;;;;7.32;4.68;;;;;;;23.60;29.17;99779.88;5097780;28;20055;-53
2021/05/09 07:43:04;;;;;;;5.85;4.30;;;;;;;23.65;29.29;99772.31;5097908;28;20036;-53
2021/05/09 07:45:30;;;;;;;5.85;4.47;;;;;;;23.70;28.86;99773.69;5098370;28;20375;-53
2021/05/09 07:47:56;;;;;;;6.28;4.32;;;;;;;23.84;29.74;99769.91;5097978;28;20044;-53
2021/05/09 07:50:25;;;;;;;6.45;4.55;;;;;;;23.85;29.13;99768.06;5097892;28;20044;-54
2021/05/09 07:52:51;;;;;;;7.22;5.00;;;;;;;23.97;28.79;99756.38;5097774;28;20119;-53
2021/05/09 07:55:17;;;;;;;5.85;3.83;;;;;;;24.13;28.94;99772.03;5080210;28;20075;-53
2021/05/09 07:57:43;;;;;;;6.38;3.95;;;;;;;24.22;28.25;99774.78;5097835;28;20048;-54
2021/05/09 08:00:13;;;;;;;7.38;5.13;;;;;;;24.33;27.81;99771.22;5097749;28;20388;-53
2021/05/09 08:02:42;;;;;;;11.43;7.35;;;;;;;24.22;28.34;99763.25;5097219;28;20036;-53
2021/05/09 08:05:08;;;;;;;13.13;7.60;;;;;;;24.40;28.44;99772.41;5097455;28;20144;-54
2021/05/09 08:07:34;;;;;;;14.02;7.28;;;;;;;24.66;28.29;99766.72;5097433;28;20057;-54
2021/05/09 08:10:00;;;;;;;11.90;6.57;;;;;;;24.65;28.31;99760.53;5096629;28;20044;-53
2021/05/09 08:12:26;;;;;;;6.72;4.32;;;;;;;24.72;28.23;99763.53;5097390;28;20040;-53
2021/05/09 08:14:51;;;;;;;7.20;4.93;;;;;;;24.93;28.05;99766.25;5096368;28;20066;-53
2021/05/09 08:17:17;;;;;;;9.07;5.82;;;;;;;24.96;28.38;99760.63;5097441;28;20082;-53
2021/05/09 08:19:43;;;;;;;11.05;6.97;;;;;;;24.93;27.21;99761.72;5096082;28;20453;-53
2021/05/09 08:22:09;;;;;;;8.63;5.63;;;;;;;24.86;27.92;99765.91;5097628;28;20048;-53
2021/05/09 08:24:35;;;;;;;15.18;5.18;;;;;;;24.80;28.61;99761.06;5063734;28;20417;-53
2021/05/09 08:27:00;;;;;;;7.72;5.35;;;;;;;24.73;28.80;99765.22;5097286;28;20074;-53
2021/05/09 08:29:26;;;;;;;10.25;3.92;;;;;;;24.67;27.45;99758.59;5097208;28;20495;-53
2021/05/09 08:31:52;;;;;;;6.40;3.63;;;;;;;24.72;27.97;99769.75;5096231;28;20365;-53
2021/05/09 08:34:18;;;;;;;5.13;3.55;;;;;;;24.67;28.58;99757.75;5096968;28;20483;-54
2021/05/09 08:36:43;;;;;;;6.20;3.30;;;;;;;24.60;28.49;99760.09;5096563;28;20123;-54
2021/05/09 08:39:09;;;;;;;6.70;3.70;;;;;;;24.55;28.91;99756.09;5108388;28;20354;-56
2021/05/09 08:41:42;;;;;;;5.78;3.30;;;;;;;24.41;28.85;99758.09;5097372;28;20456;-55
2021/05/09 08:44:10;;;;;;;4.25;2.92;;;;;;;24.43;28.95;99753.44;5096675;28;20074;-56
2021/05/09 08:46:36;;;;;;;6.35;3.47;;;;;;;24.44;28.90;99757.84;5096662;28;20044;-54
2021/05/09 08:49:03;;;;;;;3.22;2.30;;;;;;;24.51;28.87;99765.38;5096862;28;20074;-54
2021/05/09 08:51:29;;;;;;;3.33;2.33;;;;;;;24.42;28.82;99761.63;5094449;28;20123;-53
2021/05/09 08:53:55;;;;;;;4.57;2.58;;;;;;;24.49;28.79;99757.44;5093013;28;20442;-53
2021/05/09 08:56:21;;;;;;;5.25;2.47;;;;;;;24.51;28.14;99763.53;5092643;28;20066;-53
2021/05/09 08:58:47;;;;;;;5.05;2.55;;;;;;;24.51;27.81;99750.16;5074846;28;20058;-53
2021/05/09 09:01:13;;;;;;;2.47;1.80;;;;;;;24.22;28.73;99755.22;5093113;28;20342;-53
2021/05/09 09:03:39;;;;;;;2.00;1.70;;;;;;;24.20;28.42;99755.34;5092298;28;20044;-53
2021/05/09 09:06:09;;;;;;;3.97;2.22;;;;;;;24.19;29.36;99766.19;5093414;28;20419;-53
2021/05/09 09:08:51;;;;;;;4.65;2.97;;;;;;;24.23;28.75;99755.09;5078311;28;20261;-53
2021/05/09 09:11:26;;;;;;;3.50;2.63;;;;;;;24.14;28.77;99769.22;5096510;28;20086;-53
2021/05/09 09:14:11;;;;;;;2.65;1.75;;;;;;;24.16;28.81;99766.44;5096216;28;20460;-53
2021/05/09 09:16:37;;;;;;;5.55;2.20;;;;;;;24.20;28.98;99766.03;5095399;28;20044;-52
2021/05/09 09:19:13;;;;;;;3.17;2.40;;;;;;;24.36;29.18;99762.94;5095101;28;20492;-53
2021/05/09 09:21:39;;;;;;;4.88;1.98;;;;;;;24.42;28.40;99753.59;5095842;28;20036;-53
2021/05/09 09:24:07;;;;;;;3.95;1.90;;;;;;;24.46;26.39;99755.03;5096353;28;20105;-53
2021/05/09 09:26:46;;;;;;;2.83;1.75;;;;;;;24.31;27.61;99746.44;5096970;28;20446;-53
2021/05/09 09:29:33;;;;;;;19.55;3.75;;;;;;;24.36;27.46;99760.25;5095535;28;20067;-53
2021/05/09 09:32:03;;;;;;;2.45;1.73;;;;;;;24.28;27.21;99754.72;5095414;28;20055;-54
2021/05/09 09:34:43;;;;;;;5.55;2.10;;;;;;;24.30;26.94;99741.19;5096312;28;20052;-53
2021/05/09 09:37:10;;;;;;;3.17;2.25;;;;;;;24.15;28.07;99754.03;5078540;28;20491;-53
2021/05/09 09:39:53;;;;;;;3.28;2.17;;;;;;;24.13;27.67;99737.25;5096245;28;20059;-53
2021/05/09 09:42:44;;;;;;;3.00;1.70;;;;;;;24.25;27.92;99749.63;5095472;28;20052;-48
2021/05/09 09:45:28;;;;;;;;;;;;;;;24.12;27.24;99749.78;5079229;28;20048;-48
2021/05/09 09:48:02;;;;;;;4.65;1.58;;;;;;;24.23;27.00;99744.38;5096416;28;19986;-48
2021/05/09 09:50:37;;;;;;;3.83;2.00;;;;;;;24.37;27.81;99740.53;5096282;28;20110;-48
2021/05/09 09:53:30;;;;;;;2.47;1.65;;;;;;;24.42;27.94;99749.09;5096486;28;20066;-48
2021/05/09 09:56:13;;;;;;;2.05;1.67;;;;;;;24.44;27.14;99732.91;5094896;28;20060;-48
2021/05/09 09:58:57;;;;;;;3.55;1.45;;;;;;;24.53;27.32;99737.47;5095761;28;20414;-48
2021/05/09 10:01:28;;;;;;;3.03;1.70;;;;;;;24.60;27.33;99727.97;5078685;28;20119;-48
2021/05/09 10:03:58;;;;;;;2.40;1.75;;;;;;;24.61;27.36;99729.66;5099586;28;20353;-48
2021/05/09 10:06:25;;;;;;;6.00;2.25;;;;;;;24.64;27.59;99721.38;5098837;28;20468;-48
2021/05/09 10:08:51;;;;;;;2.47;1.50;;;;;;;24.72;27.13;99724.22;5099658;28;20040;-48
2021/05/09 10:11:17;;;;;;;3.10;1.52;;;;;;;24.72;27.48;99728.72;5099685;28;20048;-48
2021/05/09 10:13:42;;;;;;;2.95;1.65;;;;;;;24.75;26.48;99716.91;5099831;28;20048;-48
2021/05/09 10:16:08;;;;;;;3.70;2.40;;;;;;;24.76;26.87;99722.13;5099617;28;20441;-48
2021/05/09 10:18:34;;;;;;;5.30;1.40;;;;;;;24.82;26.30;99723.44;5098433;28;20071;-48
2021/05/09 10:21:00;;;;;;;3.40;1.52;;;;;;;24.79;27.47;99718.34;5081776;28;20044;-48
2021/05/09 10:23:27;;;;;;;2.35;1.42;;;;;;;24.80;25.63;99702.16;5099928;28;20118;-48
2021/05/09 10:25:56;;;;;;;2.05;1.20;;;;;;;24.80;27.27;99706.69;5098710;28;20044;-48
2021/05/09 10:28:36;;;;;;;3.88;1.50;;;;;;;24.88;27.19;99706.84;5082675;28;20102;-48
2021/05/09 10:31:02;;;;;;;1.60;1.10;;;;;;;24.88;27.09;99709.53;5098920;28;20414;-48
2021/05/09 10:33:43;;;;;;;3.28;1.25;;;;;;;24.92;27.13;99714.47;5099283;28;20052;-48
2021/05/09 10:36:35;;;;;;;1.23;1.00;;;;;;;24.95;27.05;99706.19;5099391;28;20067;-48
2021/05/09 10:39:10;;;;;;;3.85;1.30;;;;;;;25.14;26.77;99710.81;5096777;28;20056;-48
2021/05/09 10:41:57;;;;;;;2.22;1.13;;;;;;;25.13;26.46;99716.31;5099249;28;20127;-48
2021/05/09 10:44:44;;;;;;;1.92;0.60;;;;;;;25.15;26.36;99714.34;5095512;28;20062;-48
2021/05/09 10:47:31;;;;;;;1.42;0.57;;;;;;;25.16;26.02;99708.03;5098289;28;20131;-48
2021/05/09 10:50:12;;;;;;;3.83;1.08;;;;;;;25.41;26.08;99712.06;5098483;28;20059;-48
2021/05/09 10:52:39;;;;;;;2.90;0.70;;;;;;;25.28;26.81;99704.25;5098756;28;20430;-48
2021/05/09 10:55:05;;;;;;;2.80;0.90;;;;;;;25.33;26.32;99706.53;5098195;28;20056;-48
2021/05/09 10:57:46;;;;;;;2.90;0.90;;;;;;;25.41;27.08;99706.69;5098566;28;20433;-48
2021/05/09 11:00:13;;;;;;;1.00;0.75;;;;;;;25.57;26.54;99704.34;5098163;28;20052;-48
2021/05/09 11:02:38;;;;;;;1.75;0.98;;;;;;;25.56;26.50;99704.50;5098767;28;20468;-48
2021/05/09 11:05:04;;;;;;;4.78;1.70;;;;;;;25.56;26.06;99699.13;5097602;28;20062;-48
2021/05/09 11:07:43;;;;;;;2.15;0.80;;;;;;;25.59;26.27;99696.19;5098700;28;20040;-48
2021/05/09 11:10:31;;;;;;;10.88;0.95;;;;;;;25.52;26.46;99693.19;5098566;28;20429;-48
2021/05/09 11:13:03;;;;;;;1.98;1.13;;;;;;;25.63;26.55;99684.19;5080407;28;20055;-48
2021/05/09 11:15:29;;;;;;;1.60;1.05;;;;;;;25.64;26.01;99689.44;5096816;28;20434;-48
2021/05/09 11:17:54;;;;;;;1.83;0.90;;;;;;;25.65;26.08;99676.88;5112901;28;20039;-49
2021/05/09 11:20:22;;;;;;;1.00;0.90;;;;;;;25.72;25.97;99678.00;5100849;28;20051;-49
2021/05/09 11:22:48;;;;;;;1.65;0.90;;;;;;;25.71;26.22;99667.44;5117083;27;20063;-48
2021/05/09 11:25:13;;;;;;;1.33;0.70;;;;;;;25.81;26.78;99665.63;5118633;28;20039;-48
2021/05/09 11:27:45;;;;;;;0.98;0.60;;;;;;;25.88;26.20;99672.13;5117328;28;20058;-48
2021/05/09 11:30:11;;;;;;;1.27;0.60;;;;;;;25.92;26.56;99660.13;5118326;28;20429;-49
2021/05/09 11:32:36;;;;;;;2.00;0.80;;;;;;;26.03;26.65;99659.13;5117743;28;20468;-49